カルガリー の空港の天気 - METARとTAF

カルガリー国際空港 ( CYYC / YYC ) - カナダ アルバータ州カルガリー
飛行場実況気象(Metar)
観測時間07/18 07:39 MDT (07/18 13:39 UTC)
風向・風速西北西 7m/s
視程10km以上
天気現象
全天の8割程度の雲 雲底高度 5490m
全天の8割程度の雲 雲底高度 6710m
気温15℃
湿度41%
気圧1001.1hPa
METARCYYC 181339Z 30014KT 20SM BKN180 BKN220 15/02 A2958 RMK AC5CI1 SLP011 DENSITY ALT 4900FT
過去の天気等 Google飛行場航空写真 Wunderground天気予報

過去48時間のMETAR

飛行場予報(TAF)
発表時間: 7/18 05:38 MDT (7/18 11:38 UTC)
予報対象時間: 18日6時 MDT ~ 19日6時 MDT
風向・風速西北西 5m/s
視程10km以上
全天の4割程度の雲 雲底高度 4570m
全天の8割程度の雲 雲底高度 7320m
18日9時 MDT ~ 18日11時 MDT に徐々に
風向・風速西北西 8m/s 瞬間風速 13m/s
18日14時 MDT から
風向・風速西北西 8m/s 瞬間風速 13m/s
視程10km以上
全天の8割程度の雲 雲底高度 2440m
全天の8割程度の雲 雲底高度 7320m
18日18時 MDT から
風向・風速西北西 8m/s 瞬間風速 13m/s
視程10km以上
少しの雲 雲底高度 2440m
全天の4割程度の雲 雲底高度 7320m
18日19時 MDT ~ 18日21時 MDT に徐々に
風向・風速西北西 5m/s
TAF CYYC 181138Z 1812/1912 29010KT P6SM SCT150 BKN240
BECMG 1815/1817 29015G25KT
FM182000 30015G25KT P6SM BKN080 BKN240
FM190000 30015G25KT P6SM FEW080 SCT240
BECMG 1901/1903 29010KT RMK NXT FCST BY 181500Z